Etusivu
METAR-TAF:

METAR-TAF

Lentoasemat :

Ventspils, Latvia

Leveyspiiri: 57-21-28N, Pituuspiiri: 021-32-39E, korkeus merenpinnasta: 6 m

Tämänhetkinen sää

Tämä raportti tehtiin 30 minuuttia sitten, kello 07.20 UTC
Tuuli 2 kn eri suunnista
Lämpötila 11°C
Kosteus 100%
Ilmanpaine 1017 hPa
Näkyvyys: 6000 m

METAR: EVVA 180720Z AUTO VRB02KT 6000 NSC 11/11 Q1017

Aika: 10:50 (07:50 UTC)


TAF: puuttuu

Säähavainnot ja -ennusteet yli 4000 lentoasemalta (METAR- ja TAF-raportit).

Käytössä olevat sääasemat on merkitty karttaan keltaisilla ja punaisilla pisteillä.

Aseta hiiri pisteen päälle nähdäksesi sääaseman nimen.

Klikkaa sitten nähdäksesi säähavainnot ja -ennusteet.

Kartan vaihtaminen: klikkaa mustalla rastilla varustettuja vihreitä pisteitä, niin voit zoomata sisään; viivalla varustettua vihreää pistettä, niin voit zoomata ulos tai vihreitä nuolia, niin pääset viereisille kartoille.


METAR-TAF: